Time;durP1;ratioP1;P1;durP2;ratioP2;P2;SDS_P1;SDS_P2;PMS_P1;PMS_P2;Temp;Humidity;BMP_temperature;BMP_pressure;BME280_temperature;BME280_humidity;BME280_pressure;Samples;Min_cycle;Max_cycle;Signal;HPM_P1;HPM_P2
2023/08/26 03:18:18;;;;;;;;;;;120.61;114.10;;;;;;2674732;76;20349;-90
2023/08/26 03:21:47;;;;;;;;;;;120.61;114.10;;;;;;2674798;75;20764;-90
2023/08/26 03:25:15;;;;;;;;;;;120.61;114.10;;;;;;2675145;76;20344;-89
2023/08/26 03:28:43;;;;;;;;;;;120.61;114.10;;;;;;2674299;75;20343;-89
2023/08/26 03:32:11;;;;;;;;;;;120.61;114.10;;;;;;2675441;75;20289;-89
2023/08/26 03:35:39;;;;;;;;;;;120.61;114.10;;;;;;2674867;75;20349;-90
2023/08/26 03:39:08;;;;;;;;;;;120.61;114.10;;;;;;2674526;75;20330;-90
2023/08/26 03:42:36;;;;;;;;;;;120.61;114.10;;;;;;2675088;75;20988;-90
2023/08/26 03:46:04;;;;;;;;;;;120.61;114.10;;;;;;2674907;76;20466;-91
2023/08/26 03:49:32;;;;;;;;;;;120.61;114.10;;;;;;2674985;76;20456;-91
2023/08/26 03:53:01;;;;;;;;;;;120.61;114.10;;;;;;2674896;75;20431;-91
2023/08/26 03:56:29;;;;;;;;;;;120.61;114.10;;;;;;2675103;75;20448;-91
2023/08/26 03:59:57;;;;;;;;;;;120.61;114.10;;;;;;2674017;75;20445;-90
2023/08/26 04:03:25;;;;;;;;;;;120.61;114.10;;;;;;2675309;76;20470;-90
2023/08/26 04:06:57;;;;;;;;;;;120.61;114.10;;;;;;2674478;75;20338;-91
2023/08/26 04:10:25;;;;;;;;;;;120.61;114.10;;;;;;2674863;76;20447;-90
2023/08/26 04:13:53;;;;;;;;;;;120.61;114.10;;;;;;2674106;76;20918;-90
2023/08/26 04:17:21;;;;;;;;;;;120.61;114.10;;;;;;2673997;75;20436;-90
2023/08/26 04:20:52;;;;;;;;;;;120.61;114.10;;;;;;2675084;76;20457;-90
2023/08/26 04:24:20;;;;;;;;;;;120.61;114.10;;;;;;2674847;76;20440;-88
2023/08/26 04:27:49;;;;;;;;;;;120.61;114.10;;;;;;2673408;76;20909;-90
2023/08/26 04:31:17;;;;;;;;;;;120.61;114.10;;;;;;2672962;76;20340;-90
2023/08/26 04:34:45;;;;;;;;;;;120.61;114.10;;;;;;2673962;76;20306;-91
2023/08/26 04:38:14;;;;;;;;;;;120.61;114.10;;;;;;2672901;76;21015;-90
2023/08/26 04:41:43;;;;;;;;;;;120.61;114.10;;;;;;2672976;76;20748;-90
2023/08/26 04:45:14;;;;;;;;;;;120.61;114.10;;;;;;2673446;76;20893;-90
2023/08/26 04:48:41;;;;;;;;;;;120.61;114.10;;;;;;2673560;76;20450;-90
2023/08/26 04:52:10;;;;;;;;;;;120.61;114.10;;;;;;2673251;76;20479;-90
2023/08/26 04:55:38;;;;;;;;;;;120.61;114.10;;;;;;2673193;76;20337;-90
2023/08/26 04:59:06;;;;;;;;;;;120.61;114.10;;;;;;2672758;76;20369;-90
2023/08/26 05:02:34;;;;;;;;;;;120.61;114.10;;;;;;2673049;76;20306;-90
2023/08/26 05:06:03;;;;;;;;;;;120.61;114.10;;;;;;2673449;76;20357;-90
2023/08/26 05:09:31;;;;;;;;;;;120.61;114.10;;;;;;2672919;76;20738;-90
2023/08/26 05:13:00;;;;;;;;;;;120.61;114.10;;;;;;2673172;76;20897;-90
2023/08/26 05:16:33;;;;;;;;;;;120.61;114.10;;;;;;2673200;76;20482;-90
2023/08/26 05:20:01;;;;;;;;;;;120.61;114.10;;;;;;2672614;76;20446;-90
2023/08/26 05:23:29;;;;;;;;;;;120.61;114.10;;;;;;2672919;76;20304;-90
2023/08/26 05:27:00;;;;;;;;;;;120.61;114.10;;;;;;2672973;76;20326;-90
2023/08/26 05:30:28;;;;;;;;;;;120.61;114.10;;;;;;2673515;76;20322;-90
2023/08/26 05:33:59;;;;;;;;;;;120.61;114.10;;;;;;2673572;76;20481;-89
2023/08/26 05:37:27;;;;;;;;;;;120.61;114.10;;;;;;2672727;76;20441;-90
2023/08/26 05:40:55;;;;;;;;;;;120.61;114.10;;;;;;2673167;76;20447;-90
2023/08/26 05:44:24;;;;;;;;;;;120.61;114.10;;;;;;2672876;76;20403;-90
2023/08/26 05:47:52;;;;;;;;;;;120.61;114.10;;;;;;2672783;76;20446;-89
2023/08/26 05:51:20;;;;;;;;;;;120.61;114.10;;;;;;2673037;76;20421;-90
2023/08/26 05:54:48;;;;;;;;;;;120.61;114.10;;;;;;2673034;76;20431;-89
2023/08/26 05:58:16;;;;;;;;;;;120.61;114.10;;;;;;2672747;76;20439;-90
2023/08/26 06:01:44;;;;;;;;;;;120.61;114.10;;;;;;2672159;76;20427;-90
2023/08/26 06:05:13;;;;;;;;;;;120.61;114.10;;;;;;2673376;76;20448;-90
2023/08/26 06:08:42;;;;;;;;;;;120.61;114.10;;;;;;2672773;76;20424;-91
2023/08/26 06:12:10;;;;;;;;;;;120.61;114.10;;;;;;2672975;76;20425;-90
2023/08/26 06:15:41;;;;;;;;;;;120.61;114.10;;;;;;2673346;76;20466;-90
2023/08/26 06:19:09;;;;;;;;;;;120.61;114.10;;;;;;2672593;76;20317;-91
2023/08/26 06:22:42;;;;;;;;;;;120.61;114.10;;;;;;2672649;76;20420;-90
2023/08/26 06:26:10;;;;;;;;;;;120.61;114.10;;;;;;2672549;76;20333;-90
2023/08/26 06:29:38;;;;;;;;;;;120.61;114.10;;;;;;2672168;76;20309;-90
2023/08/26 06:33:07;;;;;;;;;;;120.61;114.10;;;;;;2673013;76;20424;-90
2023/08/26 06:36:35;;;;;;;;;;;120.61;114.10;;;;;;2672651;76;20482;-90
2023/08/26 06:40:05;;;;;;;;;;;120.61;114.10;;;;;;2672616;76;20475;-90
2023/08/26 06:43:33;;;;;;;;;;;120.61;114.10;;;;;;2672329;76;20425;-91
2023/08/26 06:47:01;;;;;;;;;;;120.61;114.10;;;;;;2673201;76;20328;-91
2023/08/26 06:50:34;;;;;;;;;;;120.61;114.10;;;;;;2673022;76;20348;-91
2023/08/26 06:54:05;;;;;;;;;;;120.61;114.10;;;;;;2672263;76;20445;-90
2023/08/26 06:57:35;;;;;;;;;;;120.61;114.10;;;;;;2672549;76;20462;-91
2023/08/26 07:01:03;;;;;;;;;;;120.61;114.10;;;;;;2672167;76;20306;-90
2023/08/26 07:04:34;;;;;;;;;;;120.61;114.10;;;;;;2672850;76;20845;-91
2023/08/26 07:08:05;;;;;;;;;;;120.61;114.10;;;;;;2672749;76;20451;-91
2023/08/26 07:11:33;;;;;;;;;;;120.61;114.10;;;;;;2672705;76;20474;-90
2023/08/26 07:15:01;;;;;;;;;;;120.61;114.10;;;;;;2672797;76;20444;-90
2023/08/26 07:18:30;;;;;;;;;;;120.61;114.10;;;;;;2672478;76;20428;-91
2023/08/26 07:21:58;;;;;;;;;;;120.61;114.10;;;;;;2672184;76;20445;-91
2023/08/26 07:25:29;;;;;;;;;;;120.61;114.10;;;;;;2672356;76;20423;-91
2023/08/26 07:29:04;;;;;;;;;;;120.61;114.10;;;;;;2671751;76;20689;-90
2023/08/26 07:32:29;;;;;;;;;;;120.61;114.10;;;;;;2673012;76;20457;-90
2023/08/26 07:35:57;;;;;;;;;;;120.61;114.10;;;;;;2672305;76;20494;-90
2023/08/26 07:39:26;;;;;;;;;;;120.61;114.10;;;;;;2672055;76;20422;-91
2023/08/26 07:42:56;;;;;;;;;;;120.61;114.10;;;;;;2672507;76;20429;-90
2023/08/26 07:46:26;;;;;;;;;;;120.61;114.10;;;;;;2672727;76;20444;-90
2023/08/26 07:49:57;;;;;;;;;;;120.61;114.10;;;;;;2672491;76;20438;-91
2023/08/26 07:53:25;;;;;;;;;;;120.61;114.10;;;;;;2672420;76;20902;-90
2023/08/26 07:57:00;;;;;;;;;;;120.61;114.10;;;;;;2672111;76;20346;-90
2023/08/26 08:00:24;;;;;;;;;;;120.61;114.10;;;;;;2672090;76;20792;-90
2023/08/26 08:03:58;;;;;;;;;;;120.61;114.10;;;;;;2673159;76;20303;-90
2023/08/26 08:07:28;;;;;;;;;;;120.61;114.10;;;;;;2672803;76;20351;-90
2023/08/26 08:10:57;;;;;;;;;;;120.61;114.10;;;;;;2672911;76;20434;-90
2023/08/26 08:14:25;;;;;;;;;;;120.61;114.10;;;;;;2673660;76;20418;-90
2023/08/26 08:18:05;;;;;;;;;;;120.61;114.10;;;;;;2672490;76;20768;-91
2023/08/26 08:21:33;;;;;;;;;;;120.61;114.10;;;;;;2672337;76;20490;-90
2023/08/26 08:25:02;;;;;;;;;;;120.61;114.10;;;;;;2672821;76;20363;-90
2023/08/26 08:28:30;;;;;;;;;;;120.61;114.10;;;;;;2673203;76;20464;-90
2023/08/26 08:32:06;;;;;;;;;;;120.61;114.10;;;;;;2672914;76;20914;-90
2023/08/26 08:35:28;;;;;;;;;;;120.61;114.10;;;;;;2673355;76;20435;-90
2023/08/26 08:38:59;;;;;;;;;;;120.61;114.10;;;;;;2672842;76;20469;-90
2023/08/26 08:42:31;;;;;;;;;;;120.61;114.10;;;;;;2672934;76;20473;-91
2023/08/26 08:46:01;;;;;;;;;;;120.61;114.10;;;;;;2673490;76;20410;-90
2023/08/26 08:49:29;;;;;;;;;;;120.61;114.10;;;;;;2672991;76;20413;-90
2023/08/26 08:53:04;;;;;;;;;;;120.61;114.10;;;;;;2673395;76;20578;-90
2023/08/26 08:56:32;;;;;;;;;;;120.61;114.10;;;;;;2673017;76;20418;-90
2023/08/26 09:00:00;;;;;;;;;;;120.61;114.10;;;;;;2672231;76;20413;-90
2023/08/26 09:03:28;;;;;;;;;;;120.61;114.10;;;;;;2672851;76;20437;-90
2023/08/26 09:06:56;;;;;;;;;;;120.61;114.10;;;;;;2672734;76;20435;-90
2023/08/26 09:10:25;;;;;;;;;;;120.61;114.10;;;;;;2672810;76;20314;-90
2023/08/26 09:13:53;;;;;;;;;;;120.61;114.10;;;;;;2672364;76;20440;-90
2023/08/26 09:17:21;;;;;;;;;;;120.61;114.10;;;;;;2671796;76;20432;-89
2023/08/26 09:20:49;;;;;;;;;;;120.61;114.10;;;;;;2673047;76;20426;-90
2023/08/26 09:24:18;;;;;;;;;;;120.61;114.10;;;;;;2672946;76;20436;-90
2023/08/26 09:27:46;;;;;;;;;;;120.61;114.10;;;;;;2672658;76;20429;-89
2023/08/26 09:31:14;;;;;;;;;;;120.61;114.10;;;;;;2672057;76;20417;-89
2023/08/26 09:34:42;;;;;;;;;;;120.61;114.10;;;;;;2672810;76;20431;-88
2023/08/26 09:38:11;;;;;;;;;;;120.61;114.10;;;;;;2672410;76;20457;-89
2023/08/26 09:41:39;;;;;;;;;;;120.61;114.10;;;;;;2672917;76;20460;-89
2023/08/26 09:45:07;;;;;;;;;;;120.61;114.10;;;;;;2672837;76;20455;-89
2023/08/26 09:48:35;;;;;;;;;;;120.61;114.10;;;;;;2672374;76;20442;-89
2023/08/26 09:52:03;;;;;;;;;;;120.61;114.10;;;;;;2672706;76;20424;-89
2023/08/26 09:55:32;;;;;;;;;;;120.61;114.10;;;;;;2672876;76;20439;-89
2023/08/26 09:59:06;;;;;;;;;;;120.61;114.10;;;;;;2671906;76;20420;-89
2023/08/26 10:02:36;;;;;;;;;;;120.61;114.10;;;;;;2672463;76;20425;-88
2023/08/26 10:06:04;;;;;;;;;;;120.61;114.10;;;;;;2672238;76;20341;-89
2023/08/26 10:09:32;;;;;;;;;;;120.61;114.10;;;;;;2672587;76;20411;-89
2023/08/26 10:13:01;;;;;;;;;;;120.61;114.10;;;;;;2672225;76;20482;-88
2023/08/26 10:16:29;;;;;;;;;;;120.61;114.10;;;;;;2672432;76;20335;-88
2023/08/26 10:19:57;;;;;;;;;;;120.61;114.10;;;;;;2672589;76;20329;-88
2023/08/26 10:23:25;;;;;;;;;;;120.61;114.10;;;;;;2672472;76;20325;-88
2023/08/26 10:26:54;;;;;;;;;;;120.61;114.10;;;;;;2672561;76;20443;-88
2023/08/26 10:30:22;;;;;;;;;;;120.61;114.10;;;;;;2672345;76;20370;-88
2023/08/26 10:33:50;;;;;;;;;;;120.61;114.10;;;;;;2672379;76;20412;-89
2023/08/26 10:37:18;;;;;;;;;;;120.61;114.10;;;;;;2671935;76;20463;-88
2023/08/26 10:40:46;;;;;;;;;;;120.61;114.10;;;;;;2672309;76;20419;-88
2023/08/26 10:44:15;;;;;;;;;;;120.61;114.10;;;;;;2672709;76;20414;-88
2023/08/26 10:47:46;;;;;;;;;;;120.61;114.10;;;;;;2672004;76;20318;-88
2023/08/26 10:51:14;;;;;;;;;;;120.61;114.10;;;;;;2672054;76;20450;-87
2023/08/26 10:54:42;;;;;;;;;;;120.61;114.10;;;;;;2672505;76;20452;-88
2023/08/26 10:58:12;;;;;;;;;;;120.61;114.10;;;;;;2671858;76;20428;-88
2023/08/26 11:01:40;;;;;;;;;;;120.61;114.10;;;;;;2671496;76;20467;-88
2023/08/26 11:05:08;;;;;;;;;;;120.61;114.10;;;;;;2672290;76;20433;-88
2023/08/26 11:08:36;;;;;;;;;;;120.61;114.10;;;;;;2671984;76;20464;-88
2023/08/26 11:12:05;;;;;;;;;;;120.61;114.10;;;;;;2672390;76;20895;-88
2023/08/26 11:15:33;;;;;;;;;;;120.61;114.10;;;;;;2672182;76;20482;-88
2023/08/26 11:19:02;;;;;;;;;;;120.61;114.10;;;;;;2672089;76;20448;-88
2023/08/26 11:22:30;;;;;;;;;;;120.61;114.10;;;;;;2671819;76;20334;-88
2023/08/26 11:25:58;;;;;;;;;;;120.61;114.10;;;;;;2672146;76;20425;-87
2023/08/26 11:29:27;;;;;;;;;;;120.61;114.10;;;;;;2672111;76;20973;-87
2023/08/26 11:32:55;;;;;;;;;;;120.61;114.10;;;;;;2671740;76;20473;-87
2023/08/26 11:36:24;;;;;;;;;;;120.61;114.10;;;;;;2672211;76;20416;-88
2023/08/26 11:39:52;;;;;;;;;;;120.61;114.10;;;;;;2672637;76;20462;-88
2023/08/26 11:43:21;;;;;;;;;;;120.61;114.10;;;;;;2672491;76;20323;-87
2023/08/26 11:46:50;;;;;;;;;;;120.61;114.10;;;;;;2672661;76;20420;-88
2023/08/26 11:50:18;;;;;;;;;;;120.61;114.10;;;;;;2672631;76;20410;-88
2023/08/26 11:53:47;;;;;;;;;;;120.61;114.10;;;;;;2672388;76;20871;-87
2023/08/26 11:57:15;;;;;;;;;;;120.61;114.10;;;;;;2672608;76;20447;-88
2023/08/26 12:00:43;;;;;;;;;;;120.61;114.10;;;;;;2672677;76;20407;-88
2023/08/26 12:04:11;;;;;;;;;;;120.61;114.10;;;;;;2672846;76;20871;-88
2023/08/26 12:07:39;;;;;;;;;;;120.61;114.10;;;;;;2672428;76;20441;-88
2023/08/26 12:11:07;;;;;;;;;;;120.61;114.10;;;;;;2673353;76;20411;-88
2023/08/26 12:14:35;;;;;;;;;;;120.61;114.10;;;;;;2672732;76;20465;-88
2023/08/26 12:18:03;;;;;;;;;;;120.61;114.10;;;;;;2672254;76;20415;-87
2023/08/26 12:21:31;;;;;;;;;;;120.61;114.10;;;;;;2673093;76;20427;-88
2023/08/26 12:25:00;;;;;;;;;;;120.61;114.10;;;;;;2673052;76;20476;-88
2023/08/26 12:28:28;;;;;;;;;;;120.61;114.10;;;;;;2672362;76;20413;-88
2023/08/26 12:31:56;;;;;;;;;;;120.61;114.10;;;;;;2672737;76;20317;-88
2023/08/26 12:35:25;;;;;;;;;;;120.61;114.10;;;;;;2672618;76;20464;-88
2023/08/26 12:38:53;;;;;;;;;;;120.61;114.10;;;;;;2672422;76;20342;-89
2023/08/26 12:42:21;;;;;;;;;;;120.61;114.10;;;;;;2672797;76;20339;-89
2023/08/26 12:45:49;;;;;;;;;;;120.61;114.10;;;;;;2672757;76;20302;-89
2023/08/26 12:49:17;;;;;;;;;;;120.61;114.10;;;;;;2672604;76;20321;-89
2023/08/26 12:52:46;;;;;;;;;;;120.61;114.10;;;;;;2672917;76;20440;-89
2023/08/26 12:56:14;;;;;;;;;;;120.61;114.10;;;;;;2672616;76;20349;-89
2023/08/26 12:59:43;;;;;;;;;;;120.61;114.10;;;;;;2672834;76;20337;-89
2023/08/26 13:03:11;;;;;;;;;;;120.61;114.10;;;;;;2673215;76;20456;-89
2023/08/26 13:06:41;;;;;;;;;;;120.61;114.10;;;;;;2672867;76;20449;-89
2023/08/26 13:10:09;;;;;;;;;;;120.61;114.10;;;;;;2673549;76;20453;-89
2023/08/26 13:13:37;;;;;;;;;;;120.61;114.10;;;;;;2672997;76;20458;-90
2023/08/26 13:17:05;;;;;;;;;;;120.61;114.10;;;;;;2672938;76;20494;-89
2023/08/26 13:20:34;;;;;;;;;;;120.61;114.10;;;;;;2673077;76;20443;-89
2023/08/26 13:24:02;;;;;;;;;;;120.61;114.10;;;;;;2672712;76;20942;-89
2023/08/26 13:27:30;;;;;;;;;;;120.61;114.10;;;;;;2672067;76;20409;-89
2023/08/26 13:31:02;;;;;;;;;;;120.61;114.10;;;;;;2672678;76;20467;-89
2023/08/26 13:34:28;;;;;;;;;;;120.61;114.10;;;;;;2672884;76;20410;-90
2023/08/26 13:37:56;;;;;;;;;;;120.61;114.10;;;;;;2672580;76;20431;-89
2023/08/26 13:41:25;;;;;;;;;;;120.61;114.10;;;;;;2673168;76;20457;-89
2023/08/26 13:44:53;;;;;;;;;;;120.61;114.10;;;;;;2672773;76;20444;-89
2023/08/26 13:48:21;;;;;;;;;;;120.61;114.10;;;;;;2672521;76;20460;-89
2023/08/26 13:51:49;;;;;;;;;;;120.61;114.10;;;;;;2672817;76;20421;-89
2023/08/26 13:55:17;;;;;;;;;;;120.61;114.10;;;;;;2673198;76;20424;-89
2023/08/26 13:58:45;;;;;;;;;;;120.61;114.10;;;;;;2671819;76;20448;-89
2023/08/26 14:02:13;;;;;;;;;;;120.61;114.10;;;;;;2673035;76;20940;-89
2023/08/26 14:05:42;;;;;;;;;;;120.61;114.10;;;;;;2673133;76;20461;-89
2023/08/26 14:09:10;;;;;;;;;;;120.61;114.10;;;;;;2672852;76;20425;-89
2023/08/26 14:12:38;;;;;;;;;;;120.61;114.10;;;;;;2673537;76;20464;-89
2023/08/26 14:16:07;;;;;;;;;;;120.61;114.10;;;;;;2673423;76;20339;-89
2023/08/26 14:19:36;;;;;;;;;;;120.61;114.10;;;;;;2673011;76;20323;-89
2023/08/26 14:23:04;;;;;;;;;;;120.61;114.10;;;;;;2673029;76;20429;-87
2023/08/26 14:26:32;;;;;;;;;;;120.61;114.10;;;;;;2673198;76;20437;-88
2023/08/26 14:30:00;;;;;;;;;;;120.61;114.10;;;;;;2674467;76;20348;-89
2023/08/26 14:33:30;;;;;;;;;;;120.61;114.10;;;;;;2673296;76;20428;-88
2023/08/26 14:36:58;;;;;;;;;;;120.61;114.10;;;;;;2672537;76;20990;-88
2023/08/26 14:40:26;;;;;;;;;;;120.61;114.10;;;;;;2672732;76;20692;-86
2023/08/26 14:43:57;;;;;;;;;;;120.61;114.10;;;;;;2672133;76;20766;-93
2023/08/26 14:47:25;;;;;;;;;;;120.61;114.10;;;;;;2671998;76;20913;-89
2023/08/26 14:50:54;;;;;;;;;;;120.61;114.10;;;;;;2672189;76;20910;-90
2023/08/26 14:54:25;;;;;;;;;;;120.61;114.10;;;;;;2672408;76;20397;-89
2023/08/26 14:57:53;;;;;;;;;;;120.61;114.10;;;;;;2672631;76;20641;-89
2023/08/26 15:01:21;;;;;;;;;;;120.61;114.10;;;;;;2672574;76;20698;-88
2023/08/26 15:04:50;;;;;;;;;;;120.61;114.10;;;;;;2672938;76;20451;-89
2023/08/26 15:08:18;;;;;;;;;;;120.61;114.10;;;;;;2672679;76;20472;-90
2023/08/26 15:11:46;;;;;;;;;;;120.61;114.10;;;;;;2673271;76;20452;-89
2023/08/26 15:15:14;;;;;;;;;;;120.61;114.10;;;;;;2673110;76;20516;-90
2023/08/26 15:18:42;;;;;;;;;;;120.61;114.10;;;;;;2673571;76;20536;-90
2023/08/26 15:22:10;;;;;;;;;;;120.61;114.10;;;;;;2673261;76;20442;-89
2023/08/26 15:25:39;;;;;;;;;;;120.61;114.10;;;;;;2673098;76;20525;-90
2023/08/26 15:29:08;;;;;;;;;;;120.61;114.10;;;;;;2672131;76;20412;-91
2023/08/26 15:32:36;;;;;;;;;;;120.61;114.10;;;;;;2673500;76;20470;-89
2023/08/26 15:36:04;;;;;;;;;;;120.61;114.10;;;;;;2672977;76;20572;-89
2023/08/26 15:39:34;;;;;;;;;;;120.61;114.10;;;;;;2672384;76;20341;-89
2023/08/26 15:43:02;;;;;;;;;;;120.61;114.10;;;;;;2672286;76;20957;-89
2023/08/26 15:46:30;;;;;;;;;;;120.61;114.10;;;;;;2672132;76;20481;-90
2023/08/26 15:49:58;;;;;;;;;;;120.61;114.10;;;;;;2672906;76;20436;-90
2023/08/26 15:53:27;;;;;;;;;;;120.61;114.10;;;;;;2673231;76;20487;-90
2023/08/26 15:56:55;;;;;;;;;;;120.61;114.10;;;;;;2673225;76;20350;-90
2023/08/26 16:00:28;;;;;;;;;;;120.61;114.10;;;;;;2672518;76;20363;-89
2023/08/26 16:03:53;;;;;;;;;;;120.61;114.10;;;;;;2672807;76;20305;-88
2023/08/26 16:07:21;;;;;;;;;;;120.61;114.10;;;;;;2672786;76;20300;-89
2023/08/26 16:10:49;;;;;;;;;;;120.61;114.10;;;;;;2673097;76;20308;-90
2023/08/26 16:14:17;;;;;;;;;;;120.61;114.10;;;;;;2674351;76;20325;-89
2023/08/26 16:17:46;;;;;;;;;;;120.61;114.10;;;;;;2672671;76;20319;-89
2023/08/26 16:21:14;;;;;;;;;;;120.61;114.10;;;;;;2672860;76;20326;-89
2023/08/26 16:24:42;;;;;;;;;;;120.61;114.10;;;;;;2673399;76;20364;-89
2023/08/26 16:28:10;;;;;;;;;;;120.61;114.10;;;;;;2673134;76;20433;-89
2023/08/26 16:31:38;;;;;;;;;;;120.61;114.10;;;;;;2672740;76;20355;-89
2023/08/26 16:35:07;;;;;;;;;;;120.61;114.10;;;;;;2673398;76;20440;-90
2023/08/26 16:38:35;;;;;;;;;;;120.61;114.10;;;;;;2672972;76;20797;-90
2023/08/26 16:42:03;;;;;;;;;;;120.61;114.10;;;;;;2673377;76;20401;-89
2023/08/26 16:45:31;;;;;;;;;;;120.61;114.10;;;;;;2673464;76;20958;-90
2023/08/26 16:48:59;;;;;;;;;;;120.61;114.10;;;;;;2673227;76;20625;-90
2023/08/26 16:52:28;;;;;;;;;;;120.61;114.10;;;;;;2673276;76;20341;-89
2023/08/26 16:55:56;;;;;;;;;;;120.61;114.10;;;;;;2673157;76;20438;-89
2023/08/26 16:59:27;;;;;;;;;;;120.61;114.10;;;;;;2672997;76;20407;-89
2023/08/26 17:02:55;;;;;;;;;;;120.61;114.10;;;;;;2672835;76;20469;-89
2023/08/26 17:06:23;;;;;;;;;;;120.61;114.10;;;;;;2673479;76;20472;-89
2023/08/26 17:09:51;;;;;;;;;;;120.61;114.10;;;;;;2672723;76;20421;-89
2023/08/26 17:13:19;;;;;;;;;;;120.61;114.10;;;;;;2673041;76;20467;-90
2023/08/26 17:16:48;;;;;;;;;;;120.61;114.10;;;;;;2673055;76;20407;-89
2023/08/26 17:20:16;;;;;;;;;;;120.61;114.10;;;;;;2673315;76;20436;-91
2023/08/26 17:23:44;;;;;;;;;;;120.61;114.10;;;;;;2672834;76;20460;-90
2023/08/26 17:27:13;;;;;;;;;;;120.61;114.10;;;;;;2672899;76;20825;-90
2023/08/26 17:30:41;;;;;;;;;;;120.61;114.10;;;;;;2673039;76;20333;-89
2023/08/26 17:34:09;;;;;;;;;;;120.61;114.10;;;;;;2673507;76;20314;-90
2023/08/26 17:37:37;;;;;;;;;;;120.61;114.10;;;;;;2672967;76;20434;-90
2023/08/26 17:41:05;;;;;;;;;;;120.61;114.10;;;;;;2673480;76;20347;-90
2023/08/26 17:44:36;;;;;;;;;;;120.61;114.10;;;;;;2673802;76;20444;-90
2023/08/26 17:48:05;;;;;;;;;;;120.61;114.10;;;;;;2673006;76;20449;-90
2023/08/26 17:51:33;;;;;;;;;;;120.61;114.10;;;;;;2673660;76;20465;-90
2023/08/26 17:55:01;;;;;;;;;;;120.61;114.10;;;;;;2673360;76;20427;-90
2023/08/26 17:58:29;;;;;;;;;;;120.61;114.10;;;;;;2673162;76;20477;-91
2023/08/26 18:02:00;;;;;;;;;;;120.61;114.10;;;;;;2673231;76;20520;-90
2023/08/26 18:05:29;;;;;;;;;;;120.61;114.10;;;;;;2673714;76;20516;-91
2023/08/26 18:08:57;;;;;;;;;;;120.61;114.10;;;;;;2672671;76;20436;-90
2023/08/26 18:12:25;;;;;;;;;;;120.61;114.10;;;;;;2672423;76;20354;-90
2023/08/26 18:15:54;;;;;;;;;;;120.61;114.10;;;;;;2672885;76;20455;-90
2023/08/26 18:19:22;;;;;;;;;;;120.61;114.10;;;;;;2672593;76;20447;-91
2023/08/26 18:22:52;;;;;;;;;;;120.61;114.10;;;;;;2677021;76;20442;-90
2023/08/26 18:26:20;;;;;;;;;;;120.61;114.10;;;;;;2673757;76;20418;-90
2023/08/26 18:29:48;;;;;;;;;;;120.61;114.10;;;;;;2672770;76;20451;-91
2023/08/26 18:33:17;;;;;;;;;;;120.61;114.10;;;;;;2673057;76;20464;-90
2023/08/26 18:36:47;;;;;;;;;;;120.61;114.10;;;;;;2672788;76;20421;-91
2023/08/26 18:40:15;;;;;;;;;;;120.61;114.10;;;;;;2672694;76;20478;-91
2023/08/26 18:43:46;;;;;;;;;;;120.61;114.10;;;;;;2672743;76;20459;-90
2023/08/26 18:47:15;;;;;;;;;;;120.61;114.10;;;;;;2672413;76;20438;-91
2023/08/26 18:50:43;;;;;;;;;;;120.61;114.10;;;;;;2672159;76;20452;-91
2023/08/26 18:54:14;;;;;;;;;;;120.61;114.10;;;;;;2672884;76;20423;-91
2023/08/26 18:57:41;;;;;;;;;;;120.61;114.10;;;;;;2672759;76;20892;-90
2023/08/26 19:01:10;;;;;;;;;;;120.61;114.10;;;;;;2672712;76;20460;-91
2023/08/26 19:04:38;;;;;;;;;;;120.61;114.10;;;;;;2673326;76;20440;-91
2023/08/26 19:08:06;;;;;;;;;;;120.61;114.10;;;;;;2672318;76;20447;-90
2023/08/26 19:11:34;;;;;;;;;;;120.61;114.10;;;;;;2673313;76;20426;-91
2023/08/26 19:15:02;;;;;;;;;;;120.61;114.10;;;;;;2673344;76;20422;-90
2023/08/26 19:18:33;;;;;;;;;;;120.61;114.10;;;;;;2673138;76;20444;-91
2023/08/26 19:22:02;;;;;;;;;;;120.61;114.10;;;;;;2672865;76;20892;-91
2023/08/26 19:25:30;;;;;;;;;;;120.61;114.10;;;;;;2673173;76;20886;-90
2023/08/26 19:28:58;;;;;;;;;;;120.61;114.10;;;;;;2672677;76;20466;-91
2023/08/26 19:32:27;;;;;;;;;;;120.61;114.10;;;;;;2673439;76;20429;-91
2023/08/26 19:35:55;;;;;;;;;;;120.61;114.10;;;;;;2672886;76;20424;-90
2023/08/26 19:39:23;;;;;;;;;;;120.61;114.10;;;;;;2672407;76;20445;-90
2023/08/26 19:42:54;;;;;;;;;;;120.61;114.10;;;;;;2672730;76;20456;-90
2023/08/26 19:46:22;;;;;;;;;;;120.61;114.10;;;;;;2673127;76;20325;-90
2023/08/26 19:49:53;;;;;;;;;;;120.61;114.10;;;;;;2672959;76;20421;-91
2023/08/26 19:53:21;;;;;;;;;;;120.61;114.10;;;;;;2673073;76;20890;-91
2023/08/26 19:56:50;;;;;;;;;;;120.61;114.10;;;;;;2672817;76;20458;-91
2023/08/26 20:00:18;;;;;;;;;;;120.61;114.10;;;;;;2672907;76;20724;-90
2023/08/26 20:03:49;;;;;;;;;;;120.61;114.10;;;;;;2673779;76;20450;-91
2023/08/26 20:07:16;;;;;;;;;;;120.61;114.10;;;;;;2673210;76;20432;-91
2023/08/26 20:10:44;;;;;;;;;;;120.61;114.10;;;;;;2674030;76;20415;-91
2023/08/26 20:14:12;;;;;;;;;;;120.61;114.10;;;;;;2672895;76;20444;-90
2023/08/26 20:17:41;;;;;;;;;;;120.61;114.10;;;;;;2672977;76;20423;-90
2023/08/26 20:21:09;;;;;;;;;;;120.61;114.10;;;;;;2673494;76;20417;-90
2023/08/26 20:24:40;;;;;;;;;;;120.61;114.10;;;;;;2672933;76;20311;-91
2023/08/26 20:28:08;;;;;;;;;;;120.61;114.10;;;;;;2673325;76;20428;-91
2023/08/26 20:31:36;;;;;;;;;;;120.61;114.10;;;;;;2672751;76;20336;-92
2023/08/26 20:35:10;;;;;;;;;;;120.61;114.10;;;;;;2672320;76;20941;-90
2023/08/26 20:38:36;;;;;;;;;;;120.61;114.10;;;;;;2671861;76;20423;-91
2023/08/26 20:42:05;;;;;;;;;;;120.61;114.10;;;;;;2672149;76;20403;-90
2023/08/26 20:45:36;;;;;;;;;;;120.61;114.10;;;;;;2673204;76;20432;-89
2023/08/26 20:49:06;;;;;;;;;;;120.61;114.10;;;;;;2673029;76;20450;-90
2023/08/26 20:52:34;;;;;;;;;;;120.61;114.10;;;;;;2672569;76;20450;-90
2023/08/26 20:56:03;;;;;;;;;;;120.61;114.10;;;;;;2673226;76;20443;-89
2023/08/26 20:59:31;;;;;;;;;;;120.61;114.10;;;;;;2673335;76;20417;-90
2023/08/26 21:02:59;;;;;;;;;;;120.61;114.10;;;;;;2673283;76;20441;-90
2023/08/26 21:06:27;;;;;;;;;;;120.61;114.10;;;;;;2673231;76;20892;-90
2023/08/26 21:09:56;;;;;;;;;;;120.61;114.10;;;;;;2673236;76;20463;-90
2023/08/26 21:13:24;;;;;;;;;;;120.61;114.10;;;;;;2673281;76;20468;-90
2023/08/26 21:16:53;;;;;;;;;;;120.61;114.10;;;;;;2673298;76;20468;-90
2023/08/26 21:20:25;;;;;;;;;;;120.61;114.10;;;;;;2672874;76;20430;-90
2023/08/26 21:23:53;;;;;;;;;;;120.61;114.10;;;;;;2672976;76;20432;-90
2023/08/26 21:27:21;;;;;;;;;;;120.61;114.10;;;;;;2672844;76;20477;-90
2023/08/26 21:30:49;;;;;;;;;;;120.61;114.10;;;;;;2673348;76;20450;-90
2023/08/26 21:34:17;;;;;;;;;;;120.61;114.10;;;;;;2673468;76;20440;-90
2023/08/26 21:37:45;;;;;;;;;;;120.61;114.10;;;;;;2672369;76;20415;-90
2023/08/26 21:41:14;;;;;;;;;;;120.61;114.10;;;;;;2673150;76;20957;-90
2023/08/26 21:44:42;;;;;;;;;;;120.61;114.10;;;;;;2673267;76;20455;-89
2023/08/26 21:48:10;;;;;;;;;;;120.61;114.10;;;;;;2672655;76;20447;-89
2023/08/26 21:51:38;;;;;;;;;;;120.61;114.10;;;;;;2672980;76;20434;-90
2023/08/26 21:55:06;;;;;;;;;;;120.61;114.10;;;;;;2673234;76;20950;-90
2023/08/26 21:58:34;;;;;;;;;;;120.61;114.10;;;;;;2672925;76;20835;-89
2023/08/26 22:02:03;;;;;;;;;;;120.61;114.10;;;;;;2673325;76;20452;-90
2023/08/26 22:05:31;;;;;;;;;;;120.61;114.10;;;;;;2673118;76;20616;-90
2023/08/26 22:08:59;;;;;;;;;;;120.61;114.10;;;;;;2673532;76;20458;-90
2023/08/26 22:12:28;;;;;;;;;;;120.61;114.10;;;;;;2673422;76;20416;-89
2023/08/26 22:15:58;;;;;;;;;;;120.61;114.10;;;;;;2672993;76;20699;-90
2023/08/26 22:19:26;;;;;;;;;;;120.61;114.10;;;;;;2672919;76;20759;-89
2023/08/26 22:22:55;;;;;;;;;;;120.61;114.10;;;;;;2672814;76;20322;-90
2023/08/26 22:26:23;;;;;;;;;;;120.61;114.10;;;;;;2672796;76;20297;-89
2023/08/26 22:29:51;;;;;;;;;;;120.61;114.10;;;;;;2672798;76;20777;-89
2023/08/26 22:33:19;;;;;;;;;;;120.61;114.10;;;;;;2672984;76;20473;-89
2023/08/26 22:36:47;;;;;;;;;;;120.61;114.10;;;;;;2673225;76;20320;-89
2023/08/26 22:40:16;;;;;;;;;;;120.61;114.10;;;;;;2672983;76;20428;-90
2023/08/26 22:43:44;;;;;;;;;;;120.61;114.10;;;;;;2672394;76;20896;-90
2023/08/26 22:47:12;;;;;;;;;;;120.61;114.10;;;;;;2673337;76;20457;-90
2023/08/26 22:50:40;;;;;;;;;;;120.61;114.10;;;;;;2673119;76;20423;-90
2023/08/26 22:54:09;;;;;;;;;;;120.61;114.10;;;;;;2672854;76;20515;-89